createdAt,value
2022-12-15T00:00:34.557Z,14.00
2022-12-15T00:03:25.736Z,18.35
2022-12-15T00:06:11.831Z,19.02
2022-12-15T00:08:59.043Z,15.73
2022-12-15T00:11:46.315Z,14.45
2022-12-15T00:14:32.574Z,16.60
2022-12-15T00:17:18.448Z,17.70
2022-12-15T00:20:04.647Z,17.40
2022-12-15T00:22:50.927Z,16.13
2022-12-15T00:25:37.131Z,18.90
2022-12-15T00:28:24.370Z,32.00
2022-12-15T00:31:10.319Z,23.05
2022-12-15T00:33:56.105Z,25.08
2022-12-15T00:36:42.088Z,25.17
2022-12-15T00:39:10.611Z,20.58
2022-12-15T00:41:39.090Z,18.17
2022-12-15T00:44:08.763Z,14.43
2022-12-15T00:46:54.581Z,13.57
2022-12-15T00:49:41.119Z,13.43
2022-12-15T00:52:27.788Z,15.75
2022-12-15T00:55:13.856Z,11.25
2022-12-15T00:58:00.880Z,23.05
2022-12-15T01:00:48.532Z,14.05
2022-12-15T01:03:37.676Z,16.27
2022-12-15T01:06:25.278Z,15.80
2022-12-15T01:09:11.358Z,21.58
2022-12-15T01:11:58.060Z,17.23
2022-12-15T01:14:44.684Z,12.95
2022-12-15T01:17:32.781Z,15.57
2022-12-15T01:20:18.413Z,13.90
2022-12-15T01:22:48.316Z,20.65
2022-12-15T01:25:18.471Z,16.30
2022-12-15T01:27:47.499Z,16.05
2022-12-15T01:30:19.597Z,25.42
2022-12-15T01:32:49.477Z,24.60
2022-12-15T01:35:18.334Z,22.60
2022-12-15T01:37:49.848Z,20.00
2022-12-15T01:40:39.074Z,13.57
2022-12-15T01:43:14.118Z,19.15
2022-12-15T01:45:56.394Z,31.77
2022-12-15T01:48:42.338Z,26.58
2022-12-15T01:51:20.818Z,22.55
2022-12-15T01:53:58.804Z,17.33
2022-12-15T01:56:32.523Z,15.85
2022-12-15T01:59:08.739Z,19.10
2022-12-15T02:01:37.411Z,17.05
2022-12-15T02:04:07.754Z,19.30
2022-12-15T02:06:37.324Z,16.27
2022-12-15T02:09:06.375Z,19.42
2022-12-15T02:11:58.305Z,22.95
2022-12-15T02:14:41.148Z,19.25
2022-12-15T02:17:19.374Z,18.95
2022-12-15T02:20:44.267Z,19.60
2022-12-15T02:23:46.170Z,13.63
2022-12-15T02:26:51.110Z,13.98
2022-12-15T02:29:58.664Z,19.00
2022-12-15T02:32:32.936Z,12.85
2022-12-15T02:37:36.129Z,14.73
2022-12-15T02:40:07.081Z,15.60
2022-12-15T02:42:37.784Z,14.60
2022-12-15T02:45:10.820Z,12.10
2022-12-15T02:47:45.967Z,18.52
2022-12-15T02:50:41.147Z,14.07
2022-12-15T02:53:28.959Z,16.33
2022-12-15T02:56:06.622Z,13.68
2022-12-15T02:58:46.014Z,13.70
2022-12-15T03:01:20.209Z,10.75
2022-12-15T03:06:21.232Z,7.68
2022-12-15T03:08:49.931Z,12.90
2022-12-15T03:11:18.633Z,11.13
2022-12-15T03:13:47.386Z,7.10
2022-12-15T03:16:18.395Z,12.10
2022-12-15T03:18:47.238Z,13.57
2022-12-15T03:21:17.088Z,12.93
2022-12-15T03:23:45.630Z,8.80
2022-12-15T03:26:14.532Z,10.88
2022-12-15T03:28:43.026Z,8.32
2022-12-15T03:31:11.496Z,12.27
2022-12-15T03:33:39.792Z,9.00
2022-12-15T03:36:09.327Z,15.68
2022-12-15T03:38:39.166Z,6.80
2022-12-15T03:41:07.792Z,10.50
2022-12-15T03:43:36.275Z,10.00
2022-12-15T03:46:04.588Z,10.38
2022-12-15T03:48:33.181Z,11.68
2022-12-15T03:51:01.754Z,14.18
2022-12-15T03:53:30.694Z,14.75
2022-12-15T03:56:00.824Z,18.33
2022-12-15T03:58:29.072Z,10.38
2022-12-15T04:00:57.421Z,12.73
2022-12-15T04:03:26.146Z,8.70
2022-12-15T04:05:54.664Z,12.88
2022-12-15T04:08:26.657Z,12.90
2022-12-15T04:10:55.364Z,12.80
2022-12-15T04:13:24.910Z,7.70
2022-12-15T04:15:53.699Z,19.05
2022-12-15T04:18:22.020Z,6.85
2022-12-15T04:20:50.619Z,6.35
2022-12-15T04:23:19.150Z,10.38
2022-12-15T04:26:05.025Z,15.10
2022-12-15T04:28:52.627Z,11.48
2022-12-15T04:31:42.580Z,10.52
2022-12-15T04:34:33.605Z,6.45
2022-12-15T04:37:19.473Z,8.75
2022-12-15T04:40:09.288Z,15.15
2022-12-15T04:42:58.852Z,17.52
2022-12-15T04:45:46.932Z,8.35
2022-12-15T04:48:33.170Z,7.13
2022-12-15T04:51:19.372Z,6.90
2022-12-15T04:54:05.612Z,7.35
2022-12-15T04:56:51.866Z,11.93
2022-12-15T04:59:37.823Z,7.53
2022-12-15T05:02:24.977Z,8.07
2022-12-15T05:05:11.080Z,7.15
2022-12-15T05:07:57.027Z,10.82
2022-12-15T05:10:42.613Z,12.95
2022-12-15T05:13:28.765Z,10.35
2022-12-15T05:16:14.978Z,13.52
2022-12-15T05:19:02.383Z,12.70
2022-12-15T05:21:48.388Z,7.80
2022-12-15T05:24:34.179Z,6.75
2022-12-15T05:27:20.361Z,8.95
2022-12-15T05:30:08.436Z,12.68
2022-12-15T05:32:36.950Z,10.60
2022-12-15T05:35:07.513Z,10.48
2022-12-15T05:37:36.044Z,15.77
2022-12-15T05:40:04.571Z,14.95
2022-12-15T05:42:33.131Z,12.75
2022-12-15T05:45:01.687Z,19.60
2022-12-15T05:47:30.203Z,15.07
2022-12-15T05:49:58.715Z,17.63
2022-12-15T05:52:28.355Z,15.52
2022-12-15T05:54:56.871Z,15.75
2022-12-15T05:57:25.394Z,16.20
2022-12-15T05:59:53.883Z,15.25
2022-12-15T06:02:22.123Z,20.27
2022-12-15T06:04:50.728Z,10.80
2022-12-15T06:07:19.266Z,12.43
2022-12-15T06:09:48.859Z,20.83
2022-12-15T06:12:17.912Z,27.10
2022-12-15T06:14:46.099Z,13.75
2022-12-15T06:17:18.625Z,25.58
2022-12-15T06:19:46.844Z,11.85
2022-12-15T06:22:15.714Z,9.52
2022-12-15T06:24:44.446Z,8.85
2022-12-15T06:27:14.007Z,8.75
2022-12-15T06:29:42.477Z,17.98
2022-12-15T06:32:10.989Z,10.75
2022-12-15T06:34:39.491Z,10.82
2022-12-15T06:37:07.694Z,12.48
2022-12-15T06:39:36.202Z,14.25
2022-12-15T06:42:04.780Z,16.70
2022-12-15T06:44:34.695Z,16.80
2022-12-15T06:47:03.886Z,24.65
2022-12-15T06:49:32.864Z,14.82
2022-12-15T06:52:01.451Z,20.10
2022-12-15T06:54:30.108Z,16.10
2022-12-15T06:56:59.021Z,16.63
2022-12-15T06:59:27.314Z,11.45
2022-12-15T07:01:57.054Z,14.90
2022-12-15T07:04:25.506Z,8.35
2022-12-15T07:06:54.139Z,13.70
2022-12-15T07:09:22.888Z,14.63
2022-12-15T07:11:52.361Z,21.58
2022-12-15T07:14:20.895Z,16.65
2022-12-15T07:16:49.446Z,33.38
2022-12-15T07:19:19.038Z,20.33
2022-12-15T07:21:47.588Z,16.08
2022-12-15T07:24:15.896Z,20.08
2022-12-15T07:26:46.041Z,8.73
2022-12-15T07:29:23.027Z,14.38
2022-12-15T07:31:51.881Z,12.63
2022-12-15T07:34:21.835Z,14.85
2022-12-15T07:36:52.784Z,28.10
2022-12-15T07:39:21.339Z,18.60
2022-12-15T07:41:49.946Z,16.75
2022-12-15T07:44:18.624Z,20.13
2022-12-15T07:46:49.157Z,19.83
2022-12-15T07:49:17.839Z,21.80
2022-12-15T07:51:47.613Z,21.42
2022-12-15T07:54:16.723Z,16.70
2022-12-15T07:56:44.944Z,15.68
2022-12-15T07:59:18.885Z,12.02
2022-12-15T08:01:47.762Z,16.10
2022-12-15T08:04:16.752Z,13.38
2022-12-15T08:06:45.312Z,11.07
2022-12-15T08:09:15.277Z,19.80
2022-12-15T08:11:43.762Z,15.13
2022-12-15T08:14:17.234Z,18.38
2022-12-15T08:19:16.926Z,16.75
2022-12-15T08:21:47.132Z,26.70
2022-12-15T08:24:19.334Z,21.80
2022-12-15T08:26:50.169Z,16.75
2022-12-15T08:32:08.496Z,25.13
2022-12-15T08:34:37.367Z,19.95
2022-12-15T08:37:05.908Z,23.45
2022-12-15T08:39:35.884Z,24.65
2022-12-15T08:42:04.532Z,28.88
2022-12-15T08:44:33.096Z,21.88
2022-12-15T08:47:01.366Z,20.80
2022-12-15T08:49:29.906Z,19.33
2022-12-15T08:51:58.490Z,21.20
2022-12-15T08:54:26.988Z,17.25
2022-12-15T08:56:56.643Z,23.25
2022-12-15T08:59:25.170Z,24.70
2022-12-15T09:01:53.856Z,21.23
2022-12-15T09:04:22.234Z,23.58
2022-12-15T09:06:51.214Z,27.95
2022-12-15T09:09:20.364Z,22.88
2022-12-15T09:11:49.043Z,29.38
2022-12-15T09:14:22.819Z,26.65
2022-12-15T09:16:55.603Z,26.25
2022-12-15T09:19:25.230Z,24.45
2022-12-15T09:21:53.776Z,23.15
2022-12-15T09:24:32.132Z,34.92
2022-12-15T09:27:03.928Z,21.58
2022-12-15T09:29:34.140Z,24.88
2022-12-15T09:32:06.488Z,22.58
2022-12-15T09:34:37.795Z,28.25
2022-12-15T09:37:06.320Z,28.10
2022-12-15T09:39:34.893Z,29.20
2022-12-15T09:42:03.441Z,29.95
2022-12-15T09:44:34.695Z,27.00
2022-12-15T09:47:15.199Z,28.58
2022-12-15T09:49:57.133Z,33.88
2022-12-15T09:52:29.380Z,39.88
2022-12-15T09:54:59.111Z,30.42
2022-12-15T09:57:38.347Z,25.73
2022-12-15T10:00:21.068Z,26.40
2022-12-15T10:03:35.936Z,41.85
2022-12-15T10:06:17.591Z,38.47
2022-12-15T10:08:51.123Z,33.55
2022-12-15T10:11:28.439Z,33.05
2022-12-15T10:14:07.116Z,37.65
2022-12-15T10:16:50.252Z,36.13
2022-12-15T10:19:27.880Z,43.72
2022-12-15T10:21:57.468Z,44.38
2022-12-15T10:25:08.116Z,46.42
2022-12-15T10:27:37.323Z,35.42
2022-12-15T10:30:10.556Z,42.85
2022-12-15T10:32:50.799Z,38.38
2022-12-15T10:35:24.211Z,46.65
2022-12-15T10:37:52.778Z,46.63
2022-12-15T10:40:43.846Z,28.65
2022-12-15T10:43:25.267Z,51.67
2022-12-15T10:46:06.315Z,36.17
2022-12-15T10:48:36.171Z,34.60
2022-12-15T10:51:21.632Z,40.03
2022-12-15T10:53:53.167Z,36.22
2022-12-15T10:56:32.342Z,41.92
2022-12-15T10:59:03.922Z,40.55
2022-12-15T11:01:35.792Z,37.58
2022-12-15T11:04:07.243Z,46.25
2022-12-15T11:06:36.832Z,28.77
2022-12-15T11:09:28.087Z,41.75
2022-12-15T11:12:14.376Z,32.97
2022-12-15T11:14:46.488Z,23.27
2022-12-15T11:17:18.419Z,43.03
2022-12-15T11:20:01.877Z,36.03
2022-12-15T11:22:41.221Z,26.63
2022-12-15T11:25:21.468Z,27.77
2022-12-15T11:27:52.574Z,40.05
2022-12-15T11:30:25.907Z,32.90
2022-12-15T11:32:59.914Z,45.83
2022-12-15T11:35:42.903Z,31.35
2022-12-15T11:38:20.923Z,30.60
2022-12-15T11:40:51.717Z,42.28
2022-12-15T11:43:59.811Z,47.60
2022-12-15T11:46:40.004Z,42.97
2022-12-15T11:49:52.438Z,53.70
2022-12-15T11:52:49.839Z,34.72
2022-12-15T11:55:33.170Z,34.88
2022-12-15T12:00:51.405Z,38.90
2022-12-15T12:03:33.227Z,34.08
2022-12-15T12:06:13.142Z,28.92
2022-12-15T12:09:21.368Z,41.50
2022-12-15T12:11:56.496Z,37.17
2022-12-15T12:14:40.523Z,35.78
2022-12-15T12:17:17.185Z,27.60
2022-12-15T12:19:52.014Z,49.47
2022-12-15T12:22:26.956Z,41.08
2022-12-15T12:25:03.651Z,30.00
2022-12-15T12:27:40.587Z,54.30
2022-12-15T12:30:16.655Z,35.15
2022-12-15T12:32:54.561Z,44.83
2022-12-15T12:35:33.190Z,39.30
2022-12-15T12:38:04.821Z,34.78
2022-12-15T12:40:53.180Z,45.92
2022-12-15T12:43:35.376Z,33.75
2022-12-15T12:46:14.059Z,27.95
2022-12-15T12:48:50.115Z,34.65
2022-12-15T12:51:27.573Z,26.92
2022-12-15T12:53:57.523Z,29.45
2022-12-15T12:56:41.412Z,36.17
2022-12-15T12:59:38.827Z,41.75
2022-12-15T13:03:08.757Z,32.15
2022-12-15T13:05:38.720Z,24.45
2022-12-15T13:08:50.918Z,33.45
2022-12-15T13:11:58.807Z,23.13
2022-12-15T13:14:48.353Z,22.13
2022-12-15T13:17:31.104Z,28.92
2022-12-15T13:20:19.879Z,50.33
2022-12-15T13:22:48.783Z,29.08
2022-12-15T13:25:41.720Z,26.73
2022-12-15T13:28:44.201Z,27.77
2022-12-15T13:34:39.716Z,30.42
2022-12-15T13:40:54.098Z,27.17
2022-12-15T13:43:54.775Z,27.33
2022-12-15T13:46:27.127Z,30.50
2022-12-15T13:49:10.341Z,33.75
2022-12-15T13:51:44.388Z,29.13
2022-12-15T13:54:26.064Z,49.25
2022-12-15T13:57:02.532Z,39.67
2022-12-15T13:59:45.997Z,42.40
2022-12-15T14:02:29.521Z,40.75
2022-12-15T14:05:17.606Z,27.30
2022-12-15T14:07:54.558Z,35.15
2022-12-15T14:10:29.595Z,35.10
2022-12-15T14:13:03.229Z,32.75
2022-12-15T14:15:44.168Z,32.47
2022-12-15T14:18:29.478Z,34.67
2022-12-15T14:20:58.841Z,38.73
2022-12-15T14:23:30.673Z,38.33
2022-12-15T14:26:06.419Z,39.65
2022-12-15T14:28:38.059Z,46.65
2022-12-15T14:31:13.255Z,37.97
2022-12-15T14:33:45.192Z,40.75
2022-12-15T14:36:21.861Z,37.60
2022-12-15T14:38:55.116Z,34.47
2022-12-15T14:41:26.474Z,39.88
2022-12-15T14:44:36.559Z,37.67
2022-12-15T14:46:50.385Z,38.92
2022-12-15T14:49:23.105Z,40.38
2022-12-15T14:51:57.821Z,40.22
2022-12-15T14:54:32.811Z,36.47
2022-12-15T14:57:03.231Z,34.03
2022-12-15T14:59:35.643Z,33.13
2022-12-15T15:02:15.773Z,36.05
2022-12-15T15:03:12.381Z,36.28
2022-12-15T15:03:13.113Z,32.28
2022-12-15T15:04:56.141Z,23.67
2022-12-15T15:07:26.206Z,22.60
2022-12-15T15:09:55.216Z,26.13
2022-12-15T15:12:26.524Z,35.95
2022-12-15T15:15:04.006Z,33.13
2022-12-15T15:17:38.878Z,25.23
2022-12-15T15:20:19.418Z,27.13
2022-12-15T15:23:02.672Z,43.92
2022-12-15T15:25:41.508Z,31.48
2022-12-15T15:28:24.074Z,35.40
2022-12-15T15:30:56.592Z,37.78
2022-12-15T15:33:27.726Z,36.63
2022-12-15T15:35:58.955Z,33.10
2022-12-15T15:38:32.672Z,38.80
2022-12-15T15:41:03.804Z,37.05
2022-12-15T15:43:32.008Z,32.47
2022-12-15T15:46:04.047Z,25.55
2022-12-15T15:48:37.173Z,28.95
2022-12-15T15:51:07.070Z,43.35
2022-12-15T15:53:36.530Z,48.92
2022-12-15T15:56:07.518Z,21.08
2022-12-15T15:58:36.589Z,22.67
2022-12-15T16:01:11.176Z,24.58
2022-12-15T16:03:43.218Z,41.22
2022-12-15T16:06:18.386Z,19.27
2022-12-15T16:08:50.067Z,30.25
2022-12-15T16:11:18.890Z,32.03
2022-12-15T16:13:47.383Z,19.95
2022-12-15T16:16:21.629Z,20.73
2022-12-15T16:21:20.799Z,18.88
2022-12-15T16:23:50.558Z,24.98
2022-12-15T16:26:33.336Z,30.38
2022-12-15T16:29:01.927Z,23.17
2022-12-15T16:31:38.967Z,27.05
2022-12-15T16:34:10.867Z,45.00
2022-12-15T16:36:39.680Z,29.80
2022-12-15T16:39:25.609Z,39.50
2022-12-15T16:41:56.874Z,35.20
2022-12-15T16:44:27.122Z,22.08
2022-12-15T16:46:56.039Z,27.70
2022-12-15T16:49:26.575Z,22.77
2022-12-15T16:51:55.508Z,23.48
2022-12-15T16:54:27.240Z,29.63
2022-12-15T16:56:57.095Z,34.17
2022-12-15T16:59:35.924Z,44.38
2022-12-15T17:02:24.043Z,32.97
2022-12-15T17:04:55.276Z,35.70
2022-12-15T17:07:27.570Z,20.73
2022-12-15T17:09:56.575Z,27.23
2022-12-15T17:12:25.325Z,30.67
2022-12-15T17:14:53.908Z,23.95
2022-12-15T17:17:22.485Z,44.45
2022-12-15T17:20:27.988Z,23.30
2022-12-15T17:22:41.331Z,24.15
2022-12-15T17:25:37.546Z,20.52
2022-12-15T17:28:17.588Z,26.38
2022-12-15T17:30:46.959Z,29.17
2022-12-15T17:33:20.997Z,31.17
2022-12-15T17:35:52.355Z,30.48
2022-12-15T17:38:24.034Z,18.65
2022-12-15T17:40:53.089Z,23.20
2022-12-15T17:43:28.157Z,22.98
2022-12-15T17:46:00.964Z,35.63
2022-12-15T17:48:29.745Z,30.95
2022-12-15T17:50:58.508Z,22.35
2022-12-15T17:53:28.779Z,39.63
2022-12-15T17:55:58.094Z,44.95
2022-12-15T17:58:28.076Z,24.90
2022-12-15T18:00:57.731Z,32.97
2022-12-15T18:03:26.352Z,27.33
2022-12-15T18:05:55.061Z,29.73
2022-12-15T18:08:25.480Z,35.13
2022-12-15T18:10:57.899Z,25.40
2022-12-15T18:13:33.374Z,25.33
2022-12-15T18:16:03.875Z,25.20
2022-12-15T18:18:32.522Z,27.52
2022-12-15T18:21:08.696Z,28.55
2022-12-15T18:23:37.511Z,17.30
2022-12-15T18:26:07.403Z,22.27
2022-12-15T18:28:36.527Z,20.08
2022-12-15T18:31:16.568Z,24.50
2022-12-15T18:33:45.495Z,29.58
2022-12-15T18:36:16.121Z,41.55
2022-12-15T18:38:46.030Z,29.40
2022-12-15T18:41:18.217Z,29.83
2022-12-15T18:43:47.865Z,32.42
2022-12-15T18:46:20.216Z,21.42
2022-12-15T18:48:48.860Z,27.15
2022-12-15T18:51:20.291Z,26.30
2022-12-15T18:53:49.885Z,33.10
2022-12-15T18:56:21.702Z,24.77
2022-12-15T18:58:50.482Z,30.65
2022-12-15T19:01:19.168Z,29.17
2022-12-15T19:03:47.776Z,33.08
2022-12-15T19:06:26.555Z,24.92
2022-12-15T19:08:54.876Z,21.77
2022-12-15T19:11:30.919Z,40.22
2022-12-15T19:14:00.223Z,23.80
2022-12-15T19:16:50.476Z,26.45
2022-12-15T19:19:36.171Z,34.97
2022-12-15T19:22:29.891Z,13.32
2022-12-15T19:24:59.039Z,23.92
2022-12-15T19:27:28.752Z,31.58
2022-12-15T19:29:57.651Z,33.47
2022-12-15T19:32:27.375Z,25.33
2022-12-15T19:34:55.710Z,33.15
2022-12-15T19:37:28.240Z,28.98
2022-12-15T19:39:58.480Z,34.38
2022-12-15T19:42:33.318Z,18.58
2022-12-15T19:45:02.082Z,31.38
2022-12-15T19:47:30.708Z,29.45
2022-12-15T19:49:59.241Z,17.48
2022-12-15T19:52:28.170Z,22.15
2022-12-15T19:54:56.449Z,28.63
2022-12-15T19:57:25.430Z,21.10
2022-12-15T19:59:55.019Z,17.27
2022-12-15T20:02:23.406Z,34.08
2022-12-15T20:04:52.126Z,23.75
2022-12-15T20:07:27.586Z,42.15
2022-12-15T20:09:58.119Z,26.08
2022-12-15T20:12:27.291Z,29.42
2022-12-15T20:14:56.828Z,17.75
2022-12-15T20:17:25.382Z,19.25
2022-12-15T20:19:53.870Z,18.45
2022-12-15T20:22:22.446Z,31.13
2022-12-15T20:24:51.098Z,20.58
2022-12-15T20:27:20.715Z,19.35
2022-12-15T20:29:49.241Z,22.60
2022-12-15T20:32:21.907Z,12.43
2022-12-15T20:34:50.750Z,23.85
2022-12-15T20:37:22.657Z,22.35
2022-12-15T20:39:56.921Z,21.27
2022-12-15T20:42:26.273Z,23.27
2022-12-15T20:44:54.585Z,25.33
2022-12-15T20:47:27.036Z,29.48
2022-12-15T20:49:56.348Z,21.67
2022-12-15T20:52:27.632Z,17.80
2022-12-15T20:54:56.517Z,13.88
2022-12-15T20:57:24.762Z,23.73
2022-12-15T20:59:53.459Z,29.92
2022-12-15T21:02:25.427Z,16.23
2022-12-15T21:04:55.140Z,21.63
2022-12-15T21:07:23.755Z,14.98
2022-12-15T21:09:52.323Z,20.98
2022-12-15T21:12:23.164Z,38.17
2022-12-15T21:14:51.716Z,20.70
2022-12-15T21:17:22.331Z,22.65
2022-12-15T21:19:52.314Z,13.27
2022-12-15T21:22:24.887Z,25.67
2022-12-15T21:24:55.680Z,25.02
2022-12-15T21:27:24.911Z,19.17
2022-12-15T21:29:53.522Z,34.63
2022-12-15T21:32:22.194Z,27.98
2022-12-15T21:34:52.081Z,20.13
2022-12-15T21:37:29.380Z,26.77
2022-12-15T21:39:59.365Z,24.85
2022-12-15T21:42:28.121Z,18.02
2022-12-15T21:44:56.352Z,32.60
2022-12-15T21:47:47.172Z,18.98
2022-12-15T21:50:17.275Z,22.55
2022-12-15T21:52:46.711Z,20.42
2022-12-15T21:55:17.148Z,29.33
2022-12-15T21:57:45.935Z,16.80
2022-12-15T22:00:17.597Z,26.10
2022-12-15T22:02:47.342Z,22.55
2022-12-15T22:05:20.568Z,30.27
2022-12-15T22:07:49.355Z,23.20
2022-12-15T22:10:19.607Z,19.48
2022-12-15T22:12:59.071Z,23.08
2022-12-15T22:15:29.791Z,20.63
2022-12-15T22:17:58.407Z,27.02
2022-12-15T22:20:27.966Z,28.95
2022-12-15T22:22:56.491Z,16.00
2022-12-15T22:25:26.338Z,26.30
2022-12-15T22:27:55.176Z,19.02
2022-12-15T22:30:26.888Z,21.75
2022-12-15T22:32:55.707Z,20.70
2022-12-15T22:35:27.590Z,17.23
2022-12-15T22:37:56.304Z,20.17
2022-12-15T22:40:25.864Z,20.80
2022-12-15T22:42:58.063Z,22.60
2022-12-15T22:45:27.219Z,20.02
2022-12-15T22:47:55.587Z,26.75
2022-12-15T22:50:28.055Z,22.20
2022-12-15T22:52:56.616Z,18.45
2022-12-15T22:55:25.356Z,29.50
2022-12-15T22:58:00.490Z,14.02
2022-12-15T23:00:29.091Z,28.50
2022-12-15T23:02:59.406Z,23.60
2022-12-15T23:05:29.518Z,18.40
2022-12-15T23:07:58.113Z,23.42
2022-12-15T23:10:44.508Z,18.27
2022-12-15T23:13:12.788Z,16.38
2022-12-15T23:15:58.958Z,17.90
2022-12-15T23:18:27.539Z,16.15
2022-12-15T23:20:57.198Z,25.23
2022-12-15T23:23:27.995Z,22.88
2022-12-15T23:25:56.883Z,12.93
2022-12-15T23:28:25.539Z,21.25
2022-12-15T23:30:55.475Z,13.80
2022-12-15T23:33:24.848Z,18.02
2022-12-15T23:35:56.171Z,18.23
2022-12-15T23:38:25.463Z,12.40
2022-12-15T23:40:56.236Z,20.63
2022-12-15T23:43:27.631Z,35.33
2022-12-15T23:46:00.885Z,13.77
2022-12-15T23:48:32.742Z,23.63
2022-12-15T23:51:07.611Z,9.55
2022-12-15T23:53:37.329Z,19.13
2022-12-15T23:56:08.944Z,15.35
2022-12-15T23:58:39.246Z,20.83
